Green Cape, Australia
Current Conditions -  °F | °C
As of 5:00 PM on Friday 19 Dec 2014 (Local Time) from YMER Reporting Station
Clear Clear  
Wind Chill: 70°   Ceiling: Unl
Heat Index: 70°   Visibility: 6mi
Dew Point: 45°   Wind: 16mph
Humidity: 40%   Direction: 180°S
Pressure: 29.91"   Gusts: NA
Location:  37.26°S, 150.05°E
Report Text: YMER 190600Z AUTO 18014KT 9999 // NCD 21/07 Q1013
Loading
Personal Weather Stations






























Interactive Weather Map New forecast layout! Learn more

10-Day Weather Forecast

Advertisements
Track Severe Weather on mobile